Time;durP1;ratioP1;P1;durP2;ratioP2;P2;SDS_P1;SDS_P2;PMS_P1;PMS_P2;Temp;Humidity;BMP_temperature;BMP_pressure;BME280_temperature;BME280_humidity;BME280_pressure;Samples;Min_cycle;Max_cycle;Signal;HPM_P1;HPM_P2
2023/05/09 00:01:35;;;;;;;29.65;16.70;;;;;;;;;;4965680;28;25102;-78
2023/05/09 00:04:01;;;;;;;27.15;16.77;;;;;;;;;;4965820;28;25121;-79
2023/05/09 00:06:27;;;;;;;28.45;16.60;;;;;;;;;;4971873;28;25045;-80
2023/05/09 00:08:53;;;;;;;31.27;18.75;;;;;;;;;;4990878;28;25081;-80
2023/05/09 00:11:21;;;;;;;37.30;17.63;;;;;;;;;;4976824;28;25068;-79
2023/05/09 00:13:47;;;;;;;31.67;19.25;;;;;;;;;;4980881;28;25063;-80
2023/05/09 00:16:14;;;;;;;31.65;17.48;;;;;;;;;;4978165;28;25069;-79
2023/05/09 00:18:41;;;;;;;41.53;21.23;;;;;;;;;;4970732;28;25068;-80
2023/05/09 00:21:08;;;;;;;31.48;18.27;;;;;;;;;;4962334;28;25069;-81
2023/05/09 00:23:34;;;;;;;32.90;16.23;;;;;;;;;;4969636;28;25067;-80
2023/05/09 00:26:00;;;;;;;32.25;16.73;;;;;;;;;;4970118;28;25067;-79
2023/05/09 00:28:26;;;;;;;32.17;15.63;;;;;;;;;;4966066;28;25112;-82
2023/05/09 00:30:53;;;;;;;32.50;16.55;;;;;;;;;;4971936;28;25068;-80
2023/05/09 00:33:19;;;;;;;27.45;16.35;;;;;;;;;;4974292;28;25104;-79
2023/05/09 00:35:45;;;;;;;25.70;15.63;;;;;;;;;;4968472;28;25136;-78
2023/05/09 00:38:11;;;;;;;28.30;14.30;;;;;;;;;;4965678;28;25057;-81
2023/05/09 00:40:37;;;;;;;25.25;14.32;;;;;;;;;;4967298;28;25145;-80
2023/05/09 00:43:03;;;;;;;32.90;15.52;;;;;;;;;;4967511;28;25093;-79
2023/05/09 00:45:30;;;;;;;28.55;15.02;;;;;;;;;;4970391;28;25079;-79
2023/05/09 00:47:56;;;;;;;31.17;14.82;;;;;;;;;;4963476;28;25057;-79
2023/05/09 00:50:23;;;;;;;26.00;14.07;;;;;;;;;;4967168;28;25121;-78
2023/05/09 00:52:50;;;;;;;32.97;14.98;;;;;;;;;;4970294;28;25078;-79
2023/05/09 00:55:16;;;;;;;29.05;14.63;;;;;;;;;;4965912;28;25067;-79
2023/05/09 00:57:42;;;;;;;27.88;14.15;;;;;;;;;;4970591;28;25119;-80
2023/05/09 01:00:12;;;;;;;24.85;13.80;;;;;;;;;;4975937;28;25082;-80
2023/05/09 01:02:39;;;;;;;24.75;14.02;;;;;;;;;;4976898;28;25059;-80
2023/05/09 01:05:05;;;;;;;24.23;12.77;;;;;;;;;;4975512;28;25147;-79
2023/05/09 01:07:45;;;;;;;26.55;13.88;;;;;;;;;;4971151;28;25080;-79
2023/05/09 01:10:15;;;;;;;22.05;12.85;;;;;;;;;;4972326;28;25063;-80
2023/05/09 01:12:52;;;;;;;26.17;14.00;;;;;;;;;;4971691;28;25097;-80
2023/05/09 01:15:24;;;;;;;28.17;13.75;;;;;;;;;;4971551;28;25064;-80
2023/05/09 01:18:05;;;;;;;23.55;12.98;;;;;;;;;;4969402;28;25062;-80
2023/05/09 01:20:33;;;;;;;19.63;12.60;;;;;;;;;;4973751;28;25076;-80
2023/05/09 01:23:01;;;;;;;21.00;12.10;;;;;;;;;;4968805;28;25079;-80
2023/05/09 01:25:27;;;;;;;24.95;12.73;;;;;;;;;;4966212;28;25181;-80
2023/05/09 01:27:57;;;;;;;20.40;12.43;;;;;;;;;;4970395;28;25067;-80
2023/05/09 01:30:25;;;;;;;21.88;11.98;;;;;;;;;;4974437;28;25060;-82
2023/05/09 01:32:53;;;;;;;24.25;12.02;;;;;;;;;;4977795;28;25057;-79
2023/05/09 01:35:20;;;;;;;23.33;13.05;;;;;;;;;;4967806;28;25093;-80
2023/05/09 01:37:49;;;;;;;23.83;11.43;;;;;;;;;;4978006;28;25105;-79
2023/05/09 01:40:16;;;;;;;24.77;12.15;;;;;;;;;;4969834;28;25081;-80
2023/05/09 01:42:54;;;;;;;21.45;11.50;;;;;;;;;;4969767;28;25068;-79
2023/05/09 01:45:21;;;;;;;26.65;13.13;;;;;;;;;;4966386;28;25079;-80
2023/05/09 01:47:47;;;;;;;22.73;11.50;;;;;;;;;;4963732;28;24788;-80
2023/05/09 01:50:14;;;;;;;24.95;11.65;;;;;;;;;;4966696;28;25066;-79
2023/05/09 01:52:42;;;;;;;21.92;11.70;;;;;;;;;;4963950;28;25088;-79
2023/05/09 01:55:08;;;;;;;21.08;11.98;;;;;;;;;;4977720;28;25070;-81
2023/05/09 01:57:35;;;;;;;19.88;11.45;;;;;;;;;;4979818;28;25060;-79
2023/05/09 02:00:02;;;;;;;24.33;13.20;;;;;;;;;;4976153;28;25062;-80
2023/05/09 02:02:28;;;;;;;22.88;11.52;;;;;;;;;;4977933;28;25073;-78
2023/05/09 02:04:55;;;;;;;22.10;11.75;;;;;;;;;;4979738;28;25102;-80
2023/05/09 02:07:22;;;;;;;17.23;11.07;;;;;;;;;;4993198;28;25057;-79
2023/05/09 02:09:49;;;;;;;18.45;10.93;;;;;;;;;;4973514;28;25058;-79
2023/05/09 02:12:15;;;;;;;21.15;11.88;;;;;;;;;;4967507;28;25077;-80
2023/05/09 02:14:41;;;;;;;18.45;12.18;;;;;;;;;;4963916;28;25194;-80
2023/05/09 02:17:08;;;;;;;20.60;12.07;;;;;;;;;;4960837;28;25062;-79
2023/05/09 02:19:35;;;;;;;20.08;11.13;;;;;;;;;;4967616;28;25073;-79
2023/05/09 02:22:03;;;;;;;22.17;12.00;;;;;;;;;;4982708;28;25100;-79
2023/05/09 02:24:30;;;;;;;20.35;11.80;;;;;;;;;;4968124;28;25070;-79
2023/05/09 02:26:56;;;;;;;18.80;12.48;;;;;;;;;;4970757;28;25142;-80
2023/05/09 02:29:26;;;;;;;22.90;12.07;;;;;;;;;;4964365;28;25050;-78
2023/05/09 02:31:53;;;;;;;25.90;12.00;;;;;;;;;;4964244;28;25082;-80
2023/05/09 02:34:20;;;;;;;25.73;13.52;;;;;;;;;;4969053;28;25047;-80
2023/05/09 02:36:46;;;;;;;21.95;12.77;;;;;;;;;;4969693;28;25135;-79
2023/05/09 02:39:12;;;;;;;23.30;12.38;;;;;;;;;;4974024;28;25146;-79
2023/05/09 02:41:38;;;;;;;22.63;12.95;;;;;;;;;;4966083;28;25088;-78
2023/05/09 02:44:04;;;;;;;23.20;11.57;;;;;;;;;;4960531;28;25071;-80
2023/05/09 02:46:30;;;;;;;19.13;11.98;;;;;;;;;;4961780;28;25055;-80
2023/05/09 02:48:56;;;;;;;22.70;11.55;;;;;;;;;;4965494;28;25063;-79
2023/05/09 02:51:22;;;;;;;20.27;11.85;;;;;;;;;;4963807;28;25066;-81
2023/05/09 02:53:48;;;;;;;25.15;12.60;;;;;;;;;;4960823;28;25062;-78
2023/05/09 02:56:14;;;;;;;21.73;12.55;;;;;;;;;;4959907;28;25067;-78
2023/05/09 02:58:40;;;;;;;23.77;11.82;;;;;;;;;;4962392;28;25072;-78
2023/05/09 03:01:06;;;;;;;22.30;12.57;;;;;;;;;;4965424;28;25062;-79
2023/05/09 03:03:33;;;;;;;22.45;12.95;;;;;;;;;;4968497;28;25068;-78
2023/05/09 03:05:59;;;;;;;27.05;12.38;;;;;;;;;;4966120;28;25058;-79
2023/05/09 03:08:25;;;;;;;27.63;13.20;;;;;;;;;;4967879;28;25070;-77
2023/05/09 03:10:51;;;;;;;22.63;13.60;;;;;;;;;;4967611;28;25110;-80
2023/05/09 03:13:17;;;;;;;23.48;12.93;;;;;;;;;;4962533;28;25060;-81
2023/05/09 03:15:43;;;;;;;21.05;11.98;;;;;;;;;;4962988;28;25060;-81
2023/05/09 03:18:10;;;;;;;22.83;12.98;;;;;;;;;;4964959;28;25087;-80
2023/05/09 03:20:36;;;;;;;25.33;14.25;;;;;;;;;;4964457;28;25088;-81
2023/05/09 03:23:02;;;;;;;25.55;12.98;;;;;;;;;;4968613;28;25036;-80
2023/05/09 03:25:28;;;;;;;24.35;14.85;;;;;;;;;;4966248;28;25111;-80
2023/05/09 03:27:54;;;;;;;25.42;12.90;;;;;;;;;;4964841;28;25085;-80
2023/05/09 03:30:21;;;;;;;23.50;13.15;;;;;;;;;;4965241;28;25048;-81
2023/05/09 03:32:47;;;;;;;28.40;12.73;;;;;;;;;;4966494;28;25081;-79
2023/05/09 03:35:13;;;;;;;27.20;15.27;;;;;;;;;;4965058;28;25058;-79
2023/05/09 03:37:39;;;;;;;34.33;14.45;;;;;;;;;;4964345;28;25058;-82
2023/05/09 03:40:05;;;;;;;26.52;14.40;;;;;;;;;;4972892;28;25090;-80
2023/05/09 03:42:31;;;;;;;29.45;15.30;;;;;;;;;;4979221;28;25063;-81
2023/05/09 03:44:57;;;;;;;26.20;14.40;;;;;;;;;;4979192;28;25068;-80
2023/05/09 03:47:23;;;;;;;27.10;13.95;;;;;;;;;;4970470;28;25064;-80
2023/05/09 03:49:49;;;;;;;27.27;14.73;;;;;;;;;;4962818;28;25077;-82
2023/05/09 03:52:15;;;;;;;25.15;13.75;;;;;;;;;;4976539;28;25076;-78
2023/05/09 03:54:41;;;;;;;25.77;14.20;;;;;;;;;;4978327;28;25062;-77
2023/05/09 03:57:07;;;;;;;22.33;13.65;;;;;;;;;;4971850;28;25065;-79
2023/05/09 03:59:34;;;;;;;23.67;13.95;;;;;;;;;;4965301;28;25049;-79
2023/05/09 04:02:00;;;;;;;23.48;13.43;;;;;;;;;;4963168;28;25094;-79
2023/05/09 04:04:27;;;;;;;29.58;14.05;;;;;;;;;;4963215;28;25115;-78
2023/05/09 04:06:53;;;;;;;26.05;13.30;;;;;;;;;;4964431;28;25052;-79
2023/05/09 04:09:19;;;;;;;22.17;13.70;;;;;;;;;;4974045;28;25085;-80
2023/05/09 04:11:45;;;;;;;23.67;13.38;;;;;;;;;;4969871;28;25084;-81
2023/05/09 04:14:11;;;;;;;29.20;14.48;;;;;;;;;;4968756;28;25064;-79
2023/05/09 04:16:37;;;;;;;25.58;13.50;;;;;;;;;;4970098;28;25097;-79
2023/05/09 04:19:03;;;;;;;30.67;13.98;;;;;;;;;;4972902;28;25067;-80
2023/05/09 04:21:30;;;;;;;25.90;13.05;;;;;;;;;;4983453;28;25061;-80
2023/05/09 04:23:57;;;;;;;20.73;13.07;;;;;;;;;;4976955;28;25062;-80
2023/05/09 04:26:23;;;;;;;22.73;13.10;;;;;;;;;;4977740;28;25060;-80
2023/05/09 04:28:49;;;;;;;20.80;11.95;;;;;;;;;;4987087;28;25072;-78
2023/05/09 04:31:16;;;;;;;23.60;13.48;;;;;;;;;;4971835;28;25079;-81
2023/05/09 04:33:42;;;;;;;24.00;12.75;;;;;;;;;;4963666;28;25067;-80
2023/05/09 04:36:08;;;;;;;24.23;12.93;;;;;;;;;;4971908;28;25076;-80
2023/05/09 04:38:34;;;;;;;16.50;11.48;;;;;;;;;;4966559;28;25077;-79
2023/05/09 04:41:00;;;;;;;20.63;11.38;;;;;;;;;;4968431;28;25054;-79
2023/05/09 04:43:26;;;;;;;21.50;12.32;;;;;;;;;;4970384;28;25082;-79
2023/05/09 04:45:53;;;;;;;26.63;11.55;;;;;;;;;;4974095;28;25092;-80
2023/05/09 04:48:19;;;;;;;21.42;12.07;;;;;;;;;;4970763;28;25071;-79
2023/05/09 04:50:47;;;;;;;21.70;12.07;;;;;;;;;;4971281;28;25073;-78
2023/05/09 04:53:13;;;;;;;23.63;12.98;;;;;;;;;;4969151;28;25149;-80
2023/05/09 04:55:39;;;;;;;26.35;13.38;;;;;;;;;;4965653;28;25074;-80
2023/05/09 04:58:05;;;;;;;25.05;13.32;;;;;;;;;;4968002;28;25073;-79
2023/05/09 05:00:31;;;;;;;23.50;12.73;;;;;;;;;;4966529;28;25074;-79
2023/05/09 05:02:58;;;;;;;23.50;11.93;;;;;;;;;;4977653;28;25085;-79
2023/05/09 05:05:24;;;;;;;19.65;11.82;;;;;;;;;;4984888;28;25079;-79
2023/05/09 05:07:52;;;;;;;21.27;12.35;;;;;;;;;;4986212;28;25076;-78
2023/05/09 05:10:18;;;;;;;20.38;11.70;;;;;;;;;;4967385;28;25068;-79
2023/05/09 05:12:45;;;;;;;27.13;12.73;;;;;;;;;;4969029;28;25142;-78
2023/05/09 05:15:11;;;;;;;19.83;12.25;;;;;;;;;;4978659;28;25062;-78
2023/05/09 05:17:37;;;;;;;21.30;11.20;;;;;;;;;;4963769;28;25106;-79
2023/05/09 05:20:05;;;;;;;24.02;11.80;;;;;;;;;;4970022;28;25094;-80
2023/05/09 05:22:31;;;;;;;19.35;12.10;;;;;;;;;;4965272;28;25072;-79
2023/05/09 05:24:57;;;;;;;17.73;11.10;;;;;;;;;;4967164;28;25084;-79
2023/05/09 05:27:23;;;;;;;19.27;11.85;;;;;;;;;;4966606;28;25082;-79
2023/05/09 05:29:49;;;;;;;24.00;13.38;;;;;;;;;;4968744;28;25073;-79
2023/05/09 05:32:15;;;;;;;23.00;11.40;;;;;;;;;;4967938;28;25129;-79
2023/05/09 05:34:41;;;;;;;21.98;12.02;;;;;;;;;;4974509;28;25094;-80
2023/05/09 05:37:07;;;;;;;20.85;11.73;;;;;;;;;;4972279;28;25101;-79
2023/05/09 05:39:33;;;;;;;22.83;13.55;;;;;;;;;;4968852;28;25144;-78
2023/05/09 05:41:59;;;;;;;22.50;12.27;;;;;;;;;;4965499;28;25066;-80
2023/05/09 05:44:25;;;;;;;24.20;12.50;;;;;;;;;;4967001;28;25098;-80
2023/05/09 05:46:51;;;;;;;22.90;12.88;;;;;;;;;;4968162;28;25051;-80
2023/05/09 05:49:17;;;;;;;24.42;13.60;;;;;;;;;;4969094;28;25098;-79
2023/05/09 05:51:43;;;;;;;19.52;11.60;;;;;;;;;;4972363;28;25081;-78
2023/05/09 05:54:09;;;;;;;22.27;13.13;;;;;;;;;;4971761;28;25058;-78
2023/05/09 05:56:35;;;;;;;26.10;13.98;;;;;;;;;;4967108;28;25067;-78
2023/05/09 05:59:02;;;;;;;19.23;12.80;;;;;;;;;;4964431;28;25061;-78
2023/05/09 06:01:28;;;;;;;25.35;13.48;;;;;;;;;;4961520;28;25085;-79
2023/05/09 06:03:54;;;;;;;23.55;12.32;;;;;;;;;;4958074;28;25056;-78
2023/05/09 06:06:21;;;;;;;21.55;12.20;;;;;;;;;;4962842;28;25071;-78
2023/05/09 06:08:52;;;;;;;21.83;12.13;;;;;;;;;;4975071;28;25052;-78
2023/05/09 06:11:18;;;;;;;21.10;13.57;;;;;;;;;;4960383;28;25093;-77
2023/05/09 06:13:44;;;;;;;24.33;13.77;;;;;;;;;;4961226;28;25058;-78
2023/05/09 06:16:10;;;;;;;25.25;13.73;;;;;;;;;;4964563;28;25075;-78
2023/05/09 06:18:38;;;;;;;23.30;12.80;;;;;;;;;;4963931;28;25074;-77
2023/05/09 06:21:04;;;;;;;18.15;11.48;;;;;;;;;;4961446;28;25080;-77
2023/05/09 06:23:30;;;;;;;18.73;11.85;;;;;;;;;;4964065;28;25051;-76
2023/05/09 06:25:56;;;;;;;21.75;13.00;;;;;;;;;;4962863;28;25060;-77
2023/05/09 06:28:22;;;;;;;19.50;11.82;;;;;;;;;;4968180;28;25070;-78
2023/05/09 06:30:48;;;;;;;23.42;12.48;;;;;;;;;;4969163;28;25088;-76
2023/05/09 06:33:14;;;;;;;20.33;13.30;;;;;;;;;;4964734;28;25049;-78
2023/05/09 06:35:40;;;;;;;18.98;12.15;;;;;;;;;;4960549;28;25066;-77
2023/05/09 06:38:07;;;;;;;26.23;13.27;;;;;;;;;;4963137;28;25067;-77
2023/05/09 06:40:32;;;;;;;20.65;12.60;;;;;;;;;;4961731;28;25101;-77
2023/05/09 06:42:58;;;;;;;24.48;13.00;;;;;;;;;;4959933;28;25183;-77
2023/05/09 06:45:25;;;;;;;21.92;13.38;;;;;;;;;;4964462;28;25054;-76
2023/05/09 06:47:51;;;;;;;20.17;12.95;;;;;;;;;;4958331;28;25058;-76
2023/05/09 06:50:17;;;;;;;20.02;12.40;;;;;;;;;;4961325;28;25080;-78
2023/05/09 06:52:43;;;;;;;18.77;12.63;;;;;;;;;;4955601;28;25081;-77
2023/05/09 06:55:09;;;;;;;24.98;13.52;;;;;;;;;;4962668;28;25051;-76
2023/05/09 06:57:36;;;;;;;22.80;13.77;;;;;;;;;;4976989;28;25060;-76
2023/05/09 07:00:03;;;;;;;23.40;13.30;;;;;;;;;;4952163;28;25137;-78
2023/05/09 07:02:30;;;;;;;23.13;12.98;;;;;;;;;;4957169;28;25074;-79
2023/05/09 07:04:56;;;;;;;25.05;13.52;;;;;;;;;;4956001;28;25056;-77
2023/05/09 07:07:22;;;;;;;20.67;13.25;;;;;;;;;;4958197;28;25097;-77
2023/05/09 07:09:47;;;;;;;23.98;13.85;;;;;;;;;;4954247;28;25073;-77
2023/05/09 07:12:13;;;;;;;26.17;14.27;;;;;;;;;;4954213;28;25074;-76
2023/05/09 07:14:40;;;;;;;27.15;14.88;;;;;;;;;;4953943;28;25073;-76
2023/05/09 07:17:07;;;;;;;23.08;14.40;;;;;;;;;;4954858;28;25107;-77
2023/05/09 07:19:33;;;;;;;22.42;14.38;;;;;;;;;;4954596;28;25132;-77
2023/05/09 07:21:59;;;;;;;23.98;13.73;;;;;;;;;;4953247;28;25052;-78
2023/05/09 07:24:25;;;;;;;25.80;13.80;;;;;;;;;;4955360;28;25061;-77
2023/05/09 07:26:51;;;;;;;23.73;14.15;;;;;;;;;;4955282;28;25065;-77
2023/05/09 07:29:19;;;;;;;25.17;14.32;;;;;;;;;;4954967;28;25074;-75
2023/05/09 07:31:45;;;;;;;21.88;12.98;;;;;;;;;;4956494;28;25107;-78
2023/05/09 07:34:11;;;;;;;23.92;13.57;;;;;;;;;;4955618;28;25060;-77
2023/05/09 07:36:38;;;;;;;23.58;14.13;;;;;;;;;;4958851;28;25117;-76
2023/05/09 07:39:04;;;;;;;23.27;12.93;;;;;;;;;;4962126;28;25061;-77
2023/05/09 07:41:31;;;;;;;24.40;13.18;;;;;;;;;;4953110;28;25071;-76
2023/05/09 07:43:57;;;;;;;23.13;13.65;;;;;;;;;;4959971;28;25070;-78
2023/05/09 07:46:23;;;;;;;19.35;12.75;;;;;;;;;;4960132;28;25074;-76
2023/05/09 07:48:49;;;;;;;22.40;12.35;;;;;;;;;;4960513;28;25063;-77
2023/05/09 07:51:15;;;;;;;21.88;13.80;;;;;;;;;;4957474;28;25067;-78
2023/05/09 07:53:41;;;;;;;23.95;13.65;;;;;;;;;;4955162;28;25073;-77
2023/05/09 07:56:07;;;;;;;24.17;13.88;;;;;;;;;;4968484;28;25057;-78
2023/05/09 07:58:33;;;;;;;24.63;13.98;;;;;;;;;;4964760;28;25069;-76
2023/05/09 08:00:59;;;;;;;19.85;13.13;;;;;;;;;;4975550;28;25074;-76
2023/05/09 08:03:25;;;;;;;23.70;12.60;;;;;;;;;;4982961;28;25077;-77
2023/05/09 08:05:55;;;;;;;21.80;12.15;;;;;;;;;;4990917;28;25061;-76
2023/05/09 08:08:21;;;;;;;19.58;12.50;;;;;;;;;;4971706;28;25087;-75
2023/05/09 08:10:47;;;;;;;19.33;11.93;;;;;;;;;;4971232;28;25060;-76
2023/05/09 08:13:13;;;;;;;16.13;9.73;;;;;;;;;;4961139;28;25071;-75
2023/05/09 08:15:39;;;;;;;15.85;9.68;;;;;;;;;;4967929;28;25079;-78
2023/05/09 08:18:05;;;;;;;15.15;9.63;;;;;;;;;;4964345;28;25109;-75
2023/05/09 08:20:33;;;;;;;15.45;8.73;;;;;;;;;;4961446;28;25122;-76
2023/05/09 08:22:59;;;;;;;13.02;8.90;;;;;;;;;;4963276;28;26174;-76
2023/05/09 08:25:25;;;;;;;11.35;8.00;;;;;;;;;;4957141;28;25133;-76
2023/05/09 08:27:51;;;;;;;12.93;8.18;;;;;;;;;;4957216;28;25082;-76
2023/05/09 08:30:17;;;;;;;12.93;8.02;;;;;;;;;;4961565;28;25048;-75
2023/05/09 08:32:43;;;;;;;13.40;7.70;;;;;;;;;;4957740;28;25076;-76
2023/05/09 08:35:10;;;;;;;9.50;6.38;;;;;;;;;;4959802;28;25082;-73
2023/05/09 08:37:36;;;;;;;8.65;6.47;;;;;;;;;;4955363;28;25131;-75
2023/05/09 08:40:09;;;;;;;9.30;6.53;;;;;;;;;;4957514;28;25153;-78
2023/05/09 08:42:37;;;;;;;18.27;7.55;;;;;;;;;;4953641;28;25098;-76
2023/05/09 08:45:09;;;;;;;9.23;7.40;;;;;;;;;;4953970;28;25062;-76
2023/05/09 08:47:37;;;;;;;13.07;7.78;;;;;;;;;;4954664;28;25134;-76
2023/05/09 08:50:03;;;;;;;11.35;7.75;;;;;;;;;;4958213;28;25054;-77
2023/05/09 08:52:30;;;;;;;15.38;8.52;;;;;;;;;;4958092;28;25062;-76
2023/05/09 08:54:56;;;;;;;12.60;8.60;;;;;;;;;;4956461;28;25059;-77
2023/05/09 08:57:22;;;;;;;17.33;8.88;;;;;;;;;;4958578;28;25057;-75
2023/05/09 08:59:51;;;;;;;14.90;8.63;;;;;;;;;;4958076;28;25090;-76
2023/05/09 09:02:17;;;;;;;12.10;9.02;;;;;;;;;;4960792;28;25065;-76
2023/05/09 09:04:43;;;;;;;17.40;10.20;;;;;;;;;;4957498;28;25056;-78
2023/05/09 09:07:10;;;;;;;17.75;10.00;;;;;;;;;;4957788;28;25054;-76
2023/05/09 09:09:36;;;;;;;13.32;9.45;;;;;;;;;;4957348;28;25071;-78
2023/05/09 09:12:06;;;;;;;15.98;9.57;;;;;;;;;;4955965;28;25056;-76
2023/05/09 09:14:34;;;;;;;15.60;10.27;;;;;;;;;;4957068;28;25075;-76
2023/05/09 09:17:01;;;;;;;17.13;10.25;;;;;;;;;;4959105;28;25076;-75
2023/05/09 09:19:29;;;;;;;21.00;11.40;;;;;;;;;;4960916;28;25128;-77
2023/05/09 09:21:58;;;;;;;20.20;10.82;;;;;;;;;;4958222;28;25063;-77
2023/05/09 09:24:24;;;;;;;17.50;11.13;;;;;;;;;;4957601;28;25068;-76
2023/05/09 09:26:51;;;;;;;17.92;10.63;;;;;;;;;;4959776;28;25077;-76
2023/05/09 09:29:18;;;;;;;16.02;10.18;;;;;;;;;;4962175;28;25058;-74
2023/05/09 09:31:44;;;;;;;15.88;10.70;;;;;;;;;;4965307;28;25071;-75
2023/05/09 09:34:12;;;;;;;11.68;9.13;;;;;;;;;;4959310;28;25090;-75
2023/05/09 09:36:38;;;;;;;16.75;11.52;;;;;;;;;;4963518;28;25073;-77
2023/05/09 09:39:04;;;;;;;23.17;11.88;;;;;;;;;;4966976;28;25103;-75
2023/05/09 09:41:33;;;;;;;14.80;10.30;;;;;;;;;;4974512;28;25067;-79
2023/05/09 09:44:06;;;;;;;19.77;11.50;;;;;;;;;;4964239;28;25103;-75
2023/05/09 09:46:32;;;;;;;;;;;;;;;;;;4959316;28;25157;-77
2023/05/09 09:48:58;;;;;;;18.48;11.23;;;;;;;;;;4958734;28;25106;-75
2023/05/09 09:51:27;;;;;;;20.73;12.63;;;;;;;;;;4956093;28;25067;-75
2023/05/09 09:53:54;;;;;;;22.20;12.85;;;;;;;;;;4955179;28;25148;-73
2023/05/09 09:56:21;;;;;;;20.40;12.25;;;;;;;;;;4956776;28;25054;-76
2023/05/09 09:58:46;;;;;;;21.75;11.90;;;;;;;;;;4963797;28;25074;-75
2023/05/09 10:01:12;;;;;;;19.45;11.07;;;;;;;;;;4959765;28;25110;-75
2023/05/09 10:03:43;;;;;;;20.42;12.48;;;;;;;;;;4954415;28;25072;-75
2023/05/09 10:06:13;;;;;;;19.63;11.90;;;;;;;;;;4954370;28;25091;-73
2023/05/09 10:08:39;;;;;;;22.73;12.60;;;;;;;;;;4958178;28;25106;-73
2023/05/09 10:11:06;;;;;;;22.55;12.02;;;;;;;;;;4959437;28;25058;-76
2023/05/09 10:13:35;;;;;;;19.65;13.43;;;;;;;;;;4957936;28;25074;-76
2023/05/09 10:16:01;;;;;;;20.10;11.98;;;;;;;;;;4956205;28;25065;-74
2023/05/09 10:18:29;;;;;;;21.50;12.90;;;;;;;;;;4960525;28;25059;-76
2023/05/09 10:20:56;;;;;;;18.75;12.60;;;;;;;;;;4952137;28;25123;-73
2023/05/09 10:23:23;;;;;;;21.10;12.23;;;;;;;;;;4951824;28;25063;-74
2023/05/09 10:25:54;;;;;;;17.15;11.18;;;;;;;;;;4958830;28;25102;-73
2023/05/09 10:28:24;;;;;;;17.80;12.43;;;;;;;;;;4956663;28;25067;-72
2023/05/09 10:30:57;;;;;;;17.23;11.65;;;;;;;;;;4955099;28;25062;-74
2023/05/09 10:33:26;;;;;;;15.82;9.60;;;;;;;;;;4950686;28;25109;-73
2023/05/09 10:35:54;;;;;;;13.27;9.68;;;;;;;;;;4953657;28;25083;-74
2023/05/09 10:38:21;;;;;;;18.02;11.77;;;;;;;;;;4956461;28;25078;-74
2023/05/09 10:40:47;;;;;;;15.43;10.38;;;;;;;;;;4957610;28;25065;-73
2023/05/09 10:43:13;;;;;;;16.27;10.93;;;;;;;;;;4958960;28;25084;-74
2023/05/09 10:45:39;;;;;;;18.67;12.30;;;;;;;;;;4957179;28;25113;-75
2023/05/09 10:48:07;;;;;;;15.82;10.18;;;;;;;;;;4955370;28;25144;-74
2023/05/09 10:50:34;;;;;;;20.70;11.52;;;;;;;;;;4953718;28;25158;-77
2023/05/09 10:53:03;;;;;;;17.55;11.43;;;;;;;;;;4952821;28;25065;-76
2023/05/09 10:55:47;;;;;;;13.98;10.23;;;;;;;;;;4951958;28;25063;-75
2023/05/09 10:58:19;;;;;;;15.55;9.98;;;;;;;;;;4953138;28;25099;-75
2023/05/09 11:00:46;;;;;;;13.20;10.05;;;;;;;;;;4954056;28;25146;-76
2023/05/09 11:03:13;;;;;;;11.48;9.15;;;;;;;;;;4957341;28;25075;-76
2023/05/09 11:05:39;;;;;;;16.02;10.00;;;;;;;;;;4955183;28;25061;-74
2023/05/09 11:08:25;;;;;;;17.33;10.50;;;;;;;;;;4955094;28;25160;-74
2023/05/09 11:10:55;;;;;;;14.25;9.57;;;;;;;;;;4956207;28;25151;-78
2023/05/09 11:13:22;;;;;;;11.60;9.65;;;;;;;;;;4956292;28;25058;-78
2023/05/09 11:16:01;;;;;;;18.23;9.73;;;;;;;;;;4959806;28;25067;-72
2023/05/09 11:18:28;;;;;;;12.85;9.98;;;;;;;;;;4962089;28;25085;-72
2023/05/09 11:20:55;;;;;;;15.85;10.52;;;;;;;;;;4959969;28;25114;-73
2023/05/09 11:23:22;;;;;;;14.27;10.32;;;;;;;;;;4953708;28;25079;-75
2023/05/09 11:25:48;;;;;;;19.50;11.35;;;;;;;;;;4959032;28;25189;-74
2023/05/09 11:28:28;;;;;;;18.50;11.30;;;;;;;;;;4954436;28;25044;-74
2023/05/09 11:31:07;;;;;;;21.23;11.75;;;;;;;;;;4958122;28;25076;-74
2023/05/09 11:33:35;;;;;;;15.57;10.77;;;;;;;;;;4957500;28;25130;-73
2023/05/09 11:36:24;;;;;;;16.75;11.38;;;;;;;;;;4953763;28;25142;-75
2023/05/09 11:38:59;;;;;;;14.60;10.32;;;;;;;;;;4956035;28;25179;-74
2023/05/09 11:41:25;;;;;;;15.60;10.63;;;;;;;;;;4952727;28;25102;-75
2023/05/09 11:43:51;;;;;;;14.77;10.90;;;;;;;;;;4954871;28;25048;-75
2023/05/09 11:46:17;;;;;;;15.82;11.35;;;;;;;;;;4957051;28;25077;-77
2023/05/09 11:48:44;;;;;;;16.35;11.10;;;;;;;;;;4960488;28;25074;-77
2023/05/09 11:51:17;;;;;;;21.38;12.45;;;;;;;;;;4958451;28;25050;-75
2023/05/09 11:53:45;;;;;;;17.23;10.15;;;;;;;;;;4952443;28;25094;-78
2023/05/09 11:56:12;;;;;;;15.55;10.43;;;;;;;;;;4956959;28;25127;-77
2023/05/09 11:58:39;;;;;;;17.17;10.23;;;;;;;;;;4954026;28;25048;-74
2023/05/09 12:01:05;;;;;;;13.25;10.27;;;;;;;;;;4955116;28;25105;-76
2023/05/09 12:03:32;;;;;;;16.10;10.63;;;;;;;;;;4955053;28;25085;-75
2023/05/09 12:05:58;;;;;;;16.65;9.88;;;;;;;;;;4956651;28;25061;-77
2023/05/09 12:08:24;;;;;;;14.48;9.13;;;;;;;;;;4955262;28;25130;-75
2023/05/09 12:10:50;;;;;;;14.20;9.95;;;;;;;;;;4959719;28;25097;-76
2023/05/09 12:13:18;;;;;;;15.68;9.70;;;;;;;;;;4964208;28;25107;-79
2023/05/09 12:15:43;;;;;;;14.60;8.88;;;;;;;;;;4963784;28;25062;-75
2023/05/09 12:18:09;;;;;;;16.02;9.65;;;;;;;;;;4965208;28;25059;-78
2023/05/09 12:20:42;;;;;;;13.93;10.60;;;;;;;;;;4960634;28;25097;-75
2023/05/09 12:23:10;;;;;;;13.27;10.15;;;;;;;;;;4967178;28;25048;-73
2023/05/09 12:25:36;;;;;;;13.82;9.50;;;;;;;;;;4971601;28;25060;-75
2023/05/09 12:28:02;;;;;;;14.90;10.73;;;;;;;;;;4970902;28;25054;-76
2023/05/09 12:30:28;;;;;;;16.50;10.52;;;;;;;;;;4965502;28;25071;-75
2023/05/09 12:32:55;;;;;;;15.00;10.63;;;;;;;;;;4961148;28;25083;-77
2023/05/09 12:35:22;;;;;;;13.27;9.27;;;;;;;;;;4972991;28;26164;-75
2023/05/09 12:37:55;;;;;;;13.85;8.40;;;;;;;;;;4968949;28;25066;-75
2023/05/09 12:40:21;;;;;;;11.73;9.10;;;;;;;;;;4961163;28;25056;-75
2023/05/09 12:42:47;;;;;;;14.98;10.13;;;;;;;;;;4962628;28;25100;-77
2023/05/09 12:45:14;;;;;;;11.45;8.52;;;;;;;;;;4960771;28;25058;-76
2023/05/09 12:47:44;;;;;;;15.20;9.93;;;;;;;;;;4960785;28;25101;-79
2023/05/09 12:50:11;;;;;;;14.55;9.88;;;;;;;;;;4958821;28;25073;-77
2023/05/09 12:52:38;;;;;;;13.02;10.73;;;;;;;;;;4962063;28;25068;-76
2023/05/09 12:55:08;;;;;;;16.15;11.48;;;;;;;;;;4955110;28;25073;-76
2023/05/09 12:57:34;;;;;;;14.75;10.93;;;;;;;;;;4955699;28;25078;-75
2023/05/09 13:00:00;;;;;;;12.00;9.02;;;;;;;;;;4960732;28;25067;-76
2023/05/09 13:02:27;;;;;;;15.75;11.00;;;;;;;;;;4959874;28;25083;-73
2023/05/09 13:05:09;;;;;;;11.70;8.48;;;;;;;;;;4958538;28;25103;-74
2023/05/09 13:07:39;;;;;;;13.68;9.75;;;;;;;;;;4961313;28;25056;-74
2023/05/09 13:10:09;;;;;;;12.73;9.55;;;;;;;;;;4962582;28;25128;-73
2023/05/09 13:12:37;;;;;;;12.50;8.07;;;;;;;;;;4957601;28;25060;-76
2023/05/09 13:15:03;;;;;;;13.07;8.48;;;;;;;;;;4966560;28;25077;-75
2023/05/09 13:17:29;;;;;;;13.13;8.23;;;;;;;;;;4967686;28;25074;-75
2023/05/09 13:19:55;;;;;;;14.32;9.15;;;;;;;;;;4951261;28;25162;-73
2023/05/09 13:22:21;;;;;;;11.68;9.02;;;;;;;;;;4957793;28;25089;-73
2023/05/09 13:24:47;;;;;;;9.75;8.38;;;;;;;;;;4958557;28;25075;-72
2023/05/09 13:27:13;;;;;;;11.23;7.90;;;;;;;;;;4952539;28;25144;-72
2023/05/09 13:29:39;;;;;;;9.02;7.70;;;;;;;;;;4965833;28;25103;-75
2023/05/09 13:32:06;;;;;;;11.52;8.25;;;;;;;;;;4961916;28;25090;-74
2023/05/09 13:34:32;;;;;;;9.98;8.57;;;;;;;;;;4959609;28;25124;-74
2023/05/09 13:36:57;;;;;;;12.82;9.98;;;;;;;;;;4956260;28;25132;-75
2023/05/09 13:39:23;;;;;;;14.95;9.43;;;;;;;;;;4957425;28;25146;-75
2023/05/09 13:41:51;;;;;;;15.13;10.30;;;;;;;;;;4953793;28;25134;-73
2023/05/09 13:44:17;;;;;;;11.98;9.15;;;;;;;;;;4951652;28;25080;-74
2023/05/09 13:46:44;;;;;;;12.73;9.95;;;;;;;;;;4958617;28;25022;-74
2023/05/09 13:49:11;;;;;;;10.40;9.05;;;;;;;;;;4962284;28;25086;-74
2023/05/09 13:51:37;;;;;;;13.07;9.95;;;;;;;;;;4955022;28;25073;-74
2023/05/09 13:54:07;;;;;;;9.18;6.72;;;;;;;;;;4952304;28;25148;-73
2023/05/09 13:56:33;;;;;;;9.63;6.60;;;;;;;;;;4966658;28;25073;-74
2023/05/09 13:58:59;;;;;;;6.97;5.85;;;;;;;;;;4949976;28;25066;-74
2023/05/09 14:01:25;;;;;;;11.10;5.20;;;;;;;;;;4949828;28;25068;-76
2023/05/09 14:03:51;;;;;;;7.30;5.40;;;;;;;;;;4947444;28;25103;-76
2023/05/09 14:06:17;;;;;;;8.35;6.28;;;;;;;;;;4946963;28;25049;-76
2023/05/09 14:08:43;;;;;;;8.98;7.10;;;;;;;;;;4950130;28;25354;-75
2023/05/09 14:11:09;;;;;;;9.50;7.53;;;;;;;;;;4948774;28;25112;-75
2023/05/09 14:13:35;;;;;;;7.45;6.75;;;;;;;;;;4954749;28;25077;-76
2023/05/09 14:16:01;;;;;;;7.45;6.40;;;;;;;;;;4949940;28;25064;-75
2023/05/09 14:18:27;;;;;;;6.22;5.30;;;;;;;;;;4950926;28;25081;-75
2023/05/09 14:20:53;;;;;;;5.25;4.72;;;;;;;;;;4951094;28;25122;-78